sensor_id;sensor_type;location;lat;lon;timestamp;pressure;altitude;pressure_sealevel;temperature;humidity
49949;BME280;35840;45.982;8.890;2023-02-20T00:00:33;99182.28;;;6.12;72.23
49949;BME280;35840;45.982;8.890;2023-02-20T00:03:00;99189.41;;;6.30;70.85
49949;BME280;35840;45.982;8.890;2023-02-20T00:05:26;99191.19;;;6.28;70.48
49949;BME280;35840;45.982;8.890;2023-02-20T00:07:53;99196.41;;;6.24;71.21
49949;BME280;35840;45.982;8.890;2023-02-20T00:10:20;99193.75;;;6.28;70.81
49949;BME280;35840;45.982;8.890;2023-02-20T00:12:47;99201.75;;;6.16;71.12
49949;BME280;35840;45.982;8.890;2023-02-20T00:15:15;99208.69;;;6.11;71.99
49949;BME280;35840;45.982;8.890;2023-02-20T00:17:42;99199.28;;;6.13;72.32
49949;BME280;35840;45.982;8.890;2023-02-20T00:20:10;99205.88;;;6.20;71.51
49949;BME280;35840;45.982;8.890;2023-02-20T00:22:37;99205.50;;;6.04;71.52
49949;BME280;35840;45.982;8.890;2023-02-20T00:25:04;99209.94;;;5.97;72.17
49949;BME280;35840;45.982;8.890;2023-02-20T00:27:30;99206.13;;;6.11;71.60
49949;BME280;35840;45.982;8.890;2023-02-20T00:29:57;99201.09;;;6.09;70.71
49949;BME280;35840;45.982;8.890;2023-02-20T00:32:24;99200.75;;;5.90;71.44
49949;BME280;35840;45.982;8.890;2023-02-20T00:34:51;99209.78;;;6.02;71.71
49949;BME280;35840;45.982;8.890;2023-02-20T00:37:18;99201.97;;;6.08;71.08
49949;BME280;35840;45.982;8.890;2023-02-20T00:39:44;99209.63;;;6.08;70.58
49949;BME280;35840;45.982;8.890;2023-02-20T00:42:11;99214.16;;;5.98;71.51
49949;BME280;35840;45.982;8.890;2023-02-20T00:44:38;99215.19;;;5.90;71.70
49949;BME280;35840;45.982;8.890;2023-02-20T00:47:05;99207.91;;;5.77;72.94
49949;BME280;35840;45.982;8.890;2023-02-20T00:49:31;99207.03;;;5.77;73.22
49949;BME280;35840;45.982;8.890;2023-02-20T00:52:08;99199.19;;;5.84;73.21
49949;BME280;35840;45.982;8.890;2023-02-20T00:54:34;99203.34;;;5.89;71.23
49949;BME280;35840;45.982;8.890;2023-02-20T00:57:01;99197.44;;;5.86;70.69
49949;BME280;35840;45.982;8.890;2023-02-20T00:59:28;99194.34;;;5.75;71.56
49949;BME280;35840;45.982;8.890;2023-02-20T01:01:54;99172.22;;;5.43;72.23
49949;BME280;35840;45.982;8.890;2023-02-20T01:04:21;99206.53;;;5.64;72.20
49949;BME280;35840;45.982;8.890;2023-02-20T01:06:48;99204.88;;;5.63;72.90
49949;BME280;35840;45.982;8.890;2023-02-20T01:09:15;99216.66;;;5.67;72.75
49949;BME280;35840;45.982;8.890;2023-02-20T01:11:44;99214.91;;;5.69;72.27
49949;BME280;35840;45.982;8.890;2023-02-20T01:14:12;99217.63;;;5.63;72.10
49949;BME280;35840;45.982;8.890;2023-02-20T01:16:46;99215.63;;;5.74;70.90
49949;BME280;35840;45.982;8.890;2023-02-20T01:19:13;99223.34;;;5.71;71.57
49949;BME280;35840;45.982;8.890;2023-02-20T01:21:40;99218.47;;;5.63;72.71
49949;BME280;35840;45.982;8.890;2023-02-20T01:24:08;99216.44;;;5.76;72.04
49949;BME280;35840;45.982;8.890;2023-02-20T01:26:34;99220.97;;;5.65;70.66
49949;BME280;35840;45.982;8.890;2023-02-20T01:29:03;99224.69;;;5.53;71.67
49949;BME280;35840;45.982;8.890;2023-02-20T01:31:30;99219.56;;;5.55;71.81
49949;BME280;35840;45.982;8.890;2023-02-20T01:33:58;99228.84;;;5.56;71.42
49949;BME280;35840;45.982;8.890;2023-02-20T01:36:24;99226.44;;;5.51;70.92
49949;BME280;35840;45.982;8.890;2023-02-20T01:38:53;99227.25;;;5.53;72.66
49949;BME280;35840;45.982;8.890;2023-02-20T01:41:21;99228.19;;;5.49;71.55
49949;BME280;35840;45.982;8.890;2023-02-20T01:43:48;99212.03;;;5.48;70.75
49949;BME280;35840;45.982;8.890;2023-02-20T01:48:59;99232.78;;;5.36;72.67
49949;BME280;35840;45.982;8.890;2023-02-20T01:51:31;99233.75;;;5.30;73.29
49949;BME280;35840;45.982;8.890;2023-02-20T01:54:01;99242.28;;;5.29;74.37
49949;BME280;35840;45.982;8.890;2023-02-20T01:56:30;99238.78;;;5.33;74.20
49949;BME280;35840;45.982;8.890;2023-02-20T01:58:57;99245.41;;;5.41;72.76
49949;BME280;35840;45.982;8.890;2023-02-20T02:01:24;99241.81;;;5.48;72.03
49949;BME280;35840;45.982;8.890;2023-02-20T02:03:56;99241.03;;;5.44;71.98
49949;BME280;35840;45.982;8.890;2023-02-20T02:06:25;99236.16;;;5.37;72.36
49949;BME280;35840;45.982;8.890;2023-02-20T02:08:55;99232.53;;;5.45;71.64
49949;BME280;35840;45.982;8.890;2023-02-20T02:11:26;99227.63;;;5.38;72.13
49949;BME280;35840;45.982;8.890;2023-02-20T02:13:54;99233.84;;;5.27;72.59
49949;BME280;35840;45.982;8.890;2023-02-20T02:19:46;99230.41;;;5.28;72.44
49949;BME280;35840;45.982;8.890;2023-02-20T02:22:40;99221.19;;;5.23;73.07
49949;BME280;35840;45.982;8.890;2023-02-20T02:25:26;99222.94;;;5.21;73.31
49949;BME280;35840;45.982;8.890;2023-02-20T02:28:45;99222.03;;;5.23;72.42
49949;BME280;35840;45.982;8.890;2023-02-20T02:44:33;99241.81;;;5.13;72.23
49949;BME280;35840;45.982;8.890;2023-02-20T02:47:06;99238.25;;;5.21;72.04
49949;BME280;35840;45.982;8.890;2023-02-20T02:49:45;99241.50;;;5.27;70.93
49949;BME280;35840;45.982;8.890;2023-02-20T02:52:14;99242.69;;;5.12;72.16
49949;BME280;35840;45.982;8.890;2023-02-20T02:55:02;99246.06;;;5.13;72.90
49949;BME280;35840;45.982;8.890;2023-02-20T02:57:30;99247.00;;;5.09;71.99
49949;BME280;35840;45.982;8.890;2023-02-20T03:00:25;99245.34;;;5.08;72.34
49949;BME280;35840;45.982;8.890;2023-02-20T03:05:29;99239.34;;;5.09;71.41
49949;BME280;35840;45.982;8.890;2023-02-20T03:08:17;99246.13;;;5.10;71.08
49949;BME280;35840;45.982;8.890;2023-02-20T03:11:03;99239.34;;;5.09;71.85
49949;BME280;35840;45.982;8.890;2023-02-20T03:13:37;99248.84;;;5.04;71.76
49949;BME280;35840;45.982;8.890;2023-02-20T03:16:29;99246.66;;;4.88;73.64
49949;BME280;35840;45.982;8.890;2023-02-20T03:19:00;99254.09;;;4.96;72.35
49949;BME280;35840;45.982;8.890;2023-02-20T03:21:30;99257.41;;;5.01;71.28
49949;BME280;35840;45.982;8.890;2023-02-20T03:23:59;99263.28;;;5.05;71.50
49949;BME280;35840;45.982;8.890;2023-02-20T03:26:34;99257.47;;;4.98;72.02
49949;BME280;35840;45.982;8.890;2023-02-20T03:29:13;99258.41;;;4.94;71.83
49949;BME280;35840;45.982;8.890;2023-02-20T03:31:50;99257.03;;;4.79;72.52
49949;BME280;35840;45.982;8.890;2023-02-20T03:34:38;99268.84;;;4.83;73.13
49949;BME280;35840;45.982;8.890;2023-02-20T03:37:25;99276.31;;;4.91;72.58
49949;BME280;35840;45.982;8.890;2023-02-20T03:40:14;99289.22;;;4.83;72.15
49949;BME280;35840;45.982;8.890;2023-02-20T03:43:04;99283.25;;;4.84;72.35
49949;BME280;35840;45.982;8.890;2023-02-20T03:45:48;99287.44;;;4.87;71.85
49949;BME280;35840;45.982;8.890;2023-02-20T03:51:07;99285.53;;;4.96;71.71
49949;BME280;35840;45.982;8.890;2023-02-20T03:53:46;99286.59;;;4.88;71.72
49949;BME280;35840;45.982;8.890;2023-02-20T03:56:28;99285.66;;;4.90;73.81
49949;BME280;35840;45.982;8.890;2023-02-20T03:59:02;99294.31;;;4.83;74.01
49949;BME280;35840;45.982;8.890;2023-02-20T04:01:34;99295.91;;;4.87;72.67
49949;BME280;35840;45.982;8.890;2023-02-20T04:04:04;99291.28;;;4.65;73.20
49949;BME280;35840;45.982;8.890;2023-02-20T04:06:33;99299.66;;;4.72;73.33
49949;BME280;35840;45.982;8.890;2023-02-20T04:09:11;99306.44;;;4.72;71.55
49949;BME280;35840;45.982;8.890;2023-02-20T04:11:49;99304.28;;;4.53;72.78
49949;BME280;35840;45.982;8.890;2023-02-20T04:14:20;99322.72;;;4.64;73.40
49949;BME280;35840;45.982;8.890;2023-02-20T04:16:57;99305.03;;;4.58;73.08
49949;BME280;35840;45.982;8.890;2023-02-20T04:19:26;99308.16;;;4.71;71.73
49949;BME280;35840;45.982;8.890;2023-02-20T04:22:01;99313.16;;;4.76;72.00
49949;BME280;35840;45.982;8.890;2023-02-20T04:24:37;99327.00;;;4.64;72.29
49949;BME280;35840;45.982;8.890;2023-02-20T04:27:07;99323.13;;;4.44;73.21
49949;BME280;35840;45.982;8.890;2023-02-20T04:29:40;99333.03;;;4.58;73.22
49949;BME280;35840;45.982;8.890;2023-02-20T04:32:07;99330.50;;;4.58;72.87
49949;BME280;35840;45.982;8.890;2023-02-20T04:34:35;99334.09;;;4.48;72.83
49949;BME280;35840;45.982;8.890;2023-02-20T04:37:11;99339.03;;;4.56;72.76
49949;BME280;35840;45.982;8.890;2023-02-20T04:39:39;99349.09;;;4.62;74.06
49949;BME280;35840;45.982;8.890;2023-02-20T04:42:06;99348.25;;;4.61;72.84
49949;BME280;35840;45.982;8.890;2023-02-20T04:44:33;99340.66;;;4.60;72.48
49949;BME280;35840;45.982;8.890;2023-02-20T04:47:05;99349.03;;;4.65;73.04
49949;BME280;35840;45.982;8.890;2023-02-20T04:49:34;99350.63;;;4.71;72.35
49949;BME280;35840;45.982;8.890;2023-02-20T04:52:04;99340.53;;;4.64;72.57
49949;BME280;35840;45.982;8.890;2023-02-20T04:54:31;99348.28;;;4.60;72.00
49949;BME280;35840;45.982;8.890;2023-02-20T04:56:59;99352.56;;;4.59;73.12
49949;BME280;35840;45.982;8.890;2023-02-20T04:59:26;99360.94;;;4.64;73.12
49949;BME280;35840;45.982;8.890;2023-02-20T05:01:52;99360.06;;;4.65;71.78
49949;BME280;35840;45.982;8.890;2023-02-20T05:04:21;99324.09;;;4.39;72.48
49949;BME280;35840;45.982;8.890;2023-02-20T05:06:51;99365.25;;;4.61;72.55
49949;BME280;35840;45.982;8.890;2023-02-20T05:09:19;99376.34;;;4.58;73.22
49949;BME280;35840;45.982;8.890;2023-02-20T05:11:46;99377.19;;;4.57;73.22
49949;BME280;35840;45.982;8.890;2023-02-20T05:14:13;99383.16;;;4.56;73.37
49949;BME280;35840;45.982;8.890;2023-02-20T05:16:41;99379.97;;;4.45;73.13
49949;BME280;35840;45.982;8.890;2023-02-20T05:19:08;99381.78;;;4.40;74.33
49949;BME280;35840;45.982;8.890;2023-02-20T05:21:34;99386.06;;;4.38;75.22
49949;BME280;35840;45.982;8.890;2023-02-20T05:24:20;99389.28;;;4.46;74.76
49949;BME280;35840;45.982;8.890;2023-02-20T05:26:47;99396.72;;;4.58;76.09
49949;BME280;35840;45.982;8.890;2023-02-20T05:29:14;99398.31;;;4.64;74.88
49949;BME280;35840;45.982;8.890;2023-02-20T05:31:41;99389.88;;;4.60;75.27
49949;BME280;35840;45.982;8.890;2023-02-20T05:34:08;99391.38;;;4.71;75.18
49949;BME280;35840;45.982;8.890;2023-02-20T05:36:35;99391.47;;;4.66;75.60
49949;BME280;35840;45.982;8.890;2023-02-20T05:39:03;99399.03;;;4.71;76.65
49949;BME280;35840;45.982;8.890;2023-02-20T05:41:30;99390.56;;;4.69;76.33
49949;BME280;35840;45.982;8.890;2023-02-20T05:43:57;99400.00;;;4.63;77.34
49949;BME280;35840;45.982;8.890;2023-02-20T05:46:26;99400.13;;;4.57;77.90
49949;BME280;35840;45.982;8.890;2023-02-20T05:48:53;99405.09;;;4.63;78.04
49949;BME280;35840;45.982;8.890;2023-02-20T05:51:22;99411.88;;;4.64;78.46
49949;BME280;35840;45.982;8.890;2023-02-20T05:53:49;99402.34;;;4.74;78.43
49949;BME280;35840;45.982;8.890;2023-02-20T05:56:16;99410.75;;;4.79;78.00
49949;BME280;35840;45.982;8.890;2023-02-20T05:58:43;99409.06;;;4.78;78.29
49949;BME280;35840;45.982;8.890;2023-02-20T06:01:22;99410.63;;;4.84;77.95
49949;BME280;35840;45.982;8.890;2023-02-20T06:03:50;99411.44;;;4.86;78.97
49949;BME280;35840;45.982;8.890;2023-02-20T06:06:17;99425.97;;;4.82;78.56
49949;BME280;35840;45.982;8.890;2023-02-20T06:08:44;99430.22;;;4.82;78.53
49949;BME280;35840;45.982;8.890;2023-02-20T06:11:12;99442.84;;;4.88;79.31
49949;BME280;35840;45.982;8.890;2023-02-20T06:13:43;99438.44;;;4.96;79.14
49949;BME280;35840;45.982;8.890;2023-02-20T06:16:11;99451.16;;;4.96;79.90
49949;BME280;35840;45.982;8.890;2023-02-20T06:18:40;99443.47;;;4.99;80.02
49949;BME280;35840;45.982;8.890;2023-02-20T06:21:08;99441.69;;;5.02;80.74
49949;BME280;35840;45.982;8.890;2023-02-20T06:23:36;99453.25;;;5.20;80.69
49949;BME280;35840;45.982;8.890;2023-02-20T06:26:04;99449.06;;;5.15;81.09
49949;BME280;35840;45.982;8.890;2023-02-20T06:28:32;99455.78;;;5.20;81.26
49949;BME280;35840;45.982;8.890;2023-02-20T06:30:59;99450.66;;;5.21;81.47
49949;BME280;35840;45.982;8.890;2023-02-20T06:33:28;99456.59;;;5.23;81.71
49949;BME280;35840;45.982;8.890;2023-02-20T06:35:54;99470.19;;;5.22;81.82
49949;BME280;35840;45.982;8.890;2023-02-20T06:38:22;99475.34;;;5.19;82.46
49949;BME280;35840;45.982;8.890;2023-02-20T06:40:49;99475.28;;;5.22;82.83
49949;BME280;35840;45.982;8.890;2023-02-20T06:43:16;99485.44;;;5.24;82.60
49949;BME280;35840;45.982;8.890;2023-02-20T06:45:43;99486.16;;;5.30;82.42
49949;BME280;35840;45.982;8.890;2023-02-20T06:48:10;99487.09;;;5.26;83.41
49949;BME280;35840;45.982;8.890;2023-02-20T06:50:37;99489.59;;;5.29;82.99
49949;BME280;35840;45.982;8.890;2023-02-20T06:53:03;99486.97;;;5.32;82.64
49949;BME280;35840;45.982;8.890;2023-02-20T06:55:31;99492.31;;;5.22;83.73
49949;BME280;35840;45.982;8.890;2023-02-20T06:57:58;99497.22;;;5.29;83.60
49949;BME280;35840;45.982;8.890;2023-02-20T07:00:25;99505.63;;;5.34;83.29
49949;BME280;35840;45.982;8.890;2023-02-20T07:02:52;99503.19;;;5.28;83.13
49949;BME280;35840;45.982;8.890;2023-02-20T07:05:19;99507.59;;;5.20;83.10
49949;BME280;35840;45.982;8.890;2023-02-20T07:07:45;99516.88;;;5.24;83.20
49949;BME280;35840;45.982;8.890;2023-02-20T07:10:12;99511.63;;;5.32;82.66
49949;BME280;35840;45.982;8.890;2023-02-20T07:12:39;99511.50;;;5.38;83.15
49949;BME280;35840;45.982;8.890;2023-02-20T07:15:07;99520.94;;;5.34;83.90
49949;BME280;35840;45.982;8.890;2023-02-20T07:17:34;99514.94;;;5.35;84.03
49949;BME280;35840;45.982;8.890;2023-02-20T07:20:00;99520.94;;;5.34;84.26
49949;BME280;35840;45.982;8.890;2023-02-20T07:22:27;99526.91;;;5.33;84.16
49949;BME280;35840;45.982;8.890;2023-02-20T07:24:54;99528.53;;;5.38;83.72
49949;BME280;35840;45.982;8.890;2023-02-20T07:27:21;99530.91;;;5.45;83.87
49949;BME280;35840;45.982;8.890;2023-02-20T07:29:49;99529.28;;;5.41;84.72
49949;BME280;35840;45.982;8.890;2023-02-20T07:32:16;99524.38;;;5.32;84.28
49949;BME280;35840;45.982;8.890;2023-02-20T07:34:46;99530.94;;;5.44;83.95
49949;BME280;35840;45.982;8.890;2023-02-20T07:37:30;99531.75;;;5.46;84.19
49949;BME280;35840;45.982;8.890;2023-02-20T07:39:57;99535.94;;;5.48;85.09
49949;BME280;35840;45.982;8.890;2023-02-20T07:42:23;99536.03;;;5.44;85.28
49949;BME280;35840;45.982;8.890;2023-02-20T07:44:58;99505.88;;;5.22;85.05
49949;BME280;35840;45.982;8.890;2023-02-20T07:47:25;99532.72;;;5.39;84.97
49949;BME280;35840;45.982;8.890;2023-02-20T07:49:51;99529.47;;;5.32;84.14
49949;BME280;35840;45.982;8.890;2023-02-20T07:52:18;99535.16;;;5.45;84.42
49949;BME280;35840;45.982;8.890;2023-02-20T07:54:45;99527.59;;;5.42;84.79
49949;BME280;35840;45.982;8.890;2023-02-20T07:57:11;99522.53;;;5.39;84.44
49949;BME280;35840;45.982;8.890;2023-02-20T07:59:40;99519.84;;;5.46;84.51
49949;BME280;35840;45.982;8.890;2023-02-20T08:02:07;99523.31;;;5.42;84.38
49949;BME280;35840;45.982;8.890;2023-02-20T08:04:34;99531.72;;;5.47;84.23
49949;BME280;35840;45.982;8.890;2023-02-20T08:07:00;99529.81;;;5.57;84.77
49949;BME280;35840;45.982;8.890;2023-02-20T08:09:27;99530.69;;;5.56;85.13
49949;BME280;35840;45.982;8.890;2023-02-20T08:11:54;99533.13;;;5.61;84.93
49949;BME280;35840;45.982;8.890;2023-02-20T08:14:21;99525.38;;;5.65;84.79
49949;BME280;35840;45.982;8.890;2023-02-20T08:16:48;99534.69;;;5.68;84.89
49949;BME280;35840;45.982;8.890;2023-02-20T08:19:14;99525.19;;;5.75;85.61
49949;BME280;35840;45.982;8.890;2023-02-20T08:21:41;99528.53;;;5.77;85.61
49949;BME280;35840;45.982;8.890;2023-02-20T08:24:08;99524.22;;;5.80;85.27
49949;BME280;35840;45.982;8.890;2023-02-20T08:26:34;99530.06;;;5.84;85.12
49949;BME280;35840;45.982;8.890;2023-02-20T08:29:07;99523.28;;;5.84;85.70
49949;BME280;35840;45.982;8.890;2023-02-20T08:31:34;99528.34;;;5.86;85.53
49949;BME280;35840;45.982;8.890;2023-02-20T08:34:01;99527.41;;;5.90;85.14
49949;BME280;35840;45.982;8.890;2023-02-20T08:36:28;99521.41;;;5.93;84.60
49949;BME280;35840;45.982;8.890;2023-02-20T08:38:55;99512.13;;;5.89;84.88
49949;BME280;35840;45.982;8.890;2023-02-20T08:41:22;99513.78;;;5.91;84.51
49949;BME280;35840;45.982;8.890;2023-02-20T08:43:49;99520.50;;;5.94;84.46
49949;BME280;35840;45.982;8.890;2023-02-20T08:46:16;99518.81;;;5.94;84.91
49949;BME280;35840;45.982;8.890;2023-02-20T08:48:43;99521.31;;;5.97;84.19
49949;BME280;35840;45.982;8.890;2023-02-20T08:51:10;99517.81;;;6.01;83.85
49949;BME280;35840;45.982;8.890;2023-02-20T08:53:38;99517.81;;;6.01;84.01
49949;BME280;35840;45.982;8.890;2023-02-20T08:56:05;99516.06;;;6.03;83.88
49949;BME280;35840;45.982;8.890;2023-02-20T08:58:32;99518.56;;;6.05;84.06
49949;BME280;35840;45.982;8.890;2023-02-20T09:00:59;99521.09;;;6.07;84.41
49949;BME280;35840;45.982;8.890;2023-02-20T09:03:26;99519.28;;;6.12;84.60
49949;BME280;35840;45.982;8.890;2023-02-20T09:05:52;99514.03;;;6.18;85.63
49949;BME280;35840;45.982;8.890;2023-02-20T09:08:19;99525.72;;;6.28;85.56
49949;BME280;35840;45.982;8.890;2023-02-20T09:10:46;99522.22;;;6.32;85.79
49949;BME280;35840;45.982;8.890;2023-02-20T09:13:13;99512.19;;;6.23;87.44
49949;BME280;35840;45.982;8.890;2023-02-20T09:15:40;99525.56;;;6.34;88.24
49949;BME280;35840;45.982;8.890;2023-02-20T09:18:10;99511.19;;;6.30;89.50
49949;BME280;35840;45.982;8.890;2023-02-20T09:20:39;99513.72;;;6.30;89.51
49949;BME280;35840;45.982;8.890;2023-02-20T09:23:07;99515.19;;;6.41;88.60
49949;BME280;35840;45.982;8.890;2023-02-20T09:25:34;99514.28;;;6.43;89.40
49949;BME280;35840;45.982;8.890;2023-02-20T09:28:01;99514.88;;;6.53;88.86
49949;BME280;35840;45.982;8.890;2023-02-20T09:30:28;99517.44;;;6.53;88.82
49949;BME280;35840;45.982;8.890;2023-02-20T09:32:55;99512.25;;;6.56;89.75
49949;BME280;35840;45.982;8.890;2023-02-20T09:35:27;99510.34;;;6.64;89.85
49949;BME280;35840;45.982;8.890;2023-02-20T09:37:54;99498.28;;;6.69;90.13
49949;BME280;35840;45.982;8.890;2023-02-20T09:40:27;99514.97;;;6.83;90.10
49949;BME280;35840;45.982;8.890;2023-02-20T09:51:07;99510.81;;;7.12;89.29
49949;BME280;35840;45.982;8.890;2023-02-20T09:54:01;99508.25;;;7.10;88.98
49949;BME280;35840;45.982;8.890;2023-02-20T09:56:32;99506.50;;;7.12;89.03
49949;BME280;35840;45.982;8.890;2023-02-20T09:59:14;99510.75;;;7.13;89.33
49949;BME280;35840;45.982;8.890;2023-02-20T10:04:33;99505.69;;;7.12;88.92
49949;BME280;35840;45.982;8.890;2023-02-20T10:09:43;99504.13;;;7.06;88.42
49949;BME280;35840;45.982;8.890;2023-02-20T10:15:02;99505.81;;;7.37;88.99
49949;BME280;35840;45.982;8.890;2023-02-20T10:20:16;99502.44;;;7.65;88.79
49949;BME280;35840;45.982;8.890;2023-02-20T10:25:29;99494.22;;;7.83;87.06
49949;BME280;35840;45.982;8.890;2023-02-20T10:28:08;99491.50;;;7.88;85.24
49949;BME280;35840;45.982;8.890;2023-02-20T10:33:25;99486.88;;;7.99;84.24
49949;BME280;35840;45.982;8.890;2023-02-20T10:36:03;99502.63;;;8.14;84.86
49949;BME280;35840;45.982;8.890;2023-02-20T10:38:48;99480.06;;;8.25;83.74
49949;BME280;35840;45.982;8.890;2023-02-20T10:44:01;99479.19;;;8.26;83.77
49949;BME280;35840;45.982;8.890;2023-02-20T10:51:58;99483.00;;;8.41;84.07
49949;BME280;35840;45.982;8.890;2023-02-20T10:57:06;99480.06;;;8.52;83.66
49949;BME280;35840;45.982;8.890;2023-02-20T10:59:44;99473.09;;;8.57;82.30
49949;BME280;35840;45.982;8.890;2023-02-20T11:02:20;99472.25;;;8.56;82.16
49949;BME280;35840;45.982;8.890;2023-02-20T11:04:55;99467.72;;;8.63;81.43
49949;BME280;35840;45.982;8.890;2023-02-20T11:07:23;99455.56;;;8.70;81.98
49949;BME280;35840;45.982;8.890;2023-02-20T11:09:49;99457.56;;;8.85;81.51
49949;BME280;35840;45.982;8.890;2023-02-20T11:12:45;99450.44;;;8.93;81.35
49949;BME280;35840;45.982;8.890;2023-02-20T11:15:25;99446.81;;;8.99;79.85
49949;BME280;35840;45.982;8.890;2023-02-20T11:17:55;99437.84;;;9.11;78.89
49949;BME280;35840;45.982;8.890;2023-02-20T11:22:58;99434.09;;;9.20;77.36
49949;BME280;35840;45.982;8.890;2023-02-20T11:25:37;99433.19;;;9.21;77.80
49949;BME280;35840;45.982;8.890;2023-02-20T11:28:18;99425.94;;;9.32;77.10
49949;BME280;35840;45.982;8.890;2023-02-20T11:31:00;99418.97;;;9.36;77.70
49949;BME280;35840;45.982;8.890;2023-02-20T11:33:45;99414.19;;;9.48;76.30
49949;BME280;35840;45.982;8.890;2023-02-20T11:36:19;99404.81;;;9.47;76.47
49949;BME280;35840;45.982;8.890;2023-02-20T11:38:56;99406.06;;;9.59;77.37
49949;BME280;35840;45.982;8.890;2023-02-20T11:41:30;99405.03;;;9.63;76.19
49949;BME280;35840;45.982;8.890;2023-02-20T11:47:30;99389.69;;;9.84;75.06
49949;BME280;35840;45.982;8.890;2023-02-20T11:50:15;99384.06;;;9.74;74.59
49949;BME280;35840;45.982;8.890;2023-02-20T11:53:00;99384.53;;;9.84;73.87
49949;BME280;35840;45.982;8.890;2023-02-20T11:55:30;99378.75;;;9.79;75.04
49949;BME280;35840;45.982;8.890;2023-02-20T11:57:57;99378.63;;;9.82;74.08
49949;BME280;35840;45.982;8.890;2023-02-20T12:00:46;99375.03;;;9.86;74.15
49949;BME280;35840;45.982;8.890;2023-02-20T12:03:19;99371.63;;;9.86;75.81
49949;BME280;35840;45.982;8.890;2023-02-20T12:05:47;99372.78;;;9.99;72.94
49949;BME280;35840;45.982;8.890;2023-02-20T12:11:13;99362.78;;;9.93;73.58
49949;BME280;35840;45.982;8.890;2023-02-20T12:13:43;99350.88;;;9.90;73.67
49949;BME280;35840;45.982;8.890;2023-02-20T12:19:09;99347.75;;;10.04;73.55
49949;BME280;35840;45.982;8.890;2023-02-20T12:24:55;99336.81;;;10.20;72.40
49949;BME280;35840;45.982;8.890;2023-02-20T12:33:35;99308.34;;;10.24;72.28
49949;BME280;35840;45.982;8.890;2023-02-20T12:36:24;99297.91;;;10.27;71.47
49949;BME280;35840;45.982;8.890;2023-02-20T12:38:58;99304.41;;;10.36;71.64
49949;BME280;35840;45.982;8.890;2023-02-20T12:42:02;99296.31;;;10.45;71.34
49949;BME280;35840;45.982;8.890;2023-02-20T12:47:43;99281.59;;;10.49;70.91
49949;BME280;35840;45.982;8.890;2023-02-20T12:58:54;99252.81;;;10.60;69.61
49949;BME280;35840;45.982;8.890;2023-02-20T13:01:23;99253.69;;;10.59;69.72
49949;BME280;35840;45.982;8.890;2023-02-20T13:04:16;99250.25;;;10.77;69.49
49949;BME280;35840;45.982;8.890;2023-02-20T13:06:59;99244.16;;;10.80;68.16
49949;BME280;35840;45.982;8.890;2023-02-20T13:09:34;99230.09;;;10.87;68.27
49949;BME280;35840;45.982;8.890;2023-02-20T13:12:08;99227.91;;;10.97;68.51
49949;BME280;35840;45.982;8.890;2023-02-20T13:17:29;99224.84;;;11.25;67.23
49949;BME280;35840;45.982;8.890;2023-02-20T13:20:42;99220.28;;;11.30;66.81
49949;BME280;35840;45.982;8.890;2023-02-20T13:23:04;99218.69;;;11.45;67.68
49949;BME280;35840;45.982;8.890;2023-02-20T13:25:36;99211.13;;;11.42;66.55
49949;BME280;35840;45.982;8.890;2023-02-20T13:30:39;99199.53;;;11.51;66.80
49949;BME280;35840;45.982;8.890;2023-02-20T13:33:18;99194.97;;;11.56;64.94
49949;BME280;35840;45.982;8.890;2023-02-20T13:35:55;99196.56;;;11.59;66.11
49949;BME280;35840;45.982;8.890;2023-02-20T13:38:24;99188.59;;;11.63;65.93
49949;BME280;35840;45.982;8.890;2023-02-20T13:46:07;99183.97;;;11.70;66.00
49949;BME280;35840;45.982;8.890;2023-02-20T13:48:47;99169.03;;;11.77;65.22
49949;BME280;35840;45.982;8.890;2023-02-20T13:53:47;99170.03;;;11.90;63.72
49949;BME280;35840;45.982;8.890;2023-02-20T13:56:15;99161.66;;;11.86;64.28
49949;BME280;35840;45.982;8.890;2023-02-20T13:58:43;99146.34;;;11.83;65.58
49949;BME280;35840;45.982;8.890;2023-02-20T14:01:11;99153.84;;;11.88;64.37
49949;BME280;35840;45.982;8.890;2023-02-20T14:03:38;99155.75;;;11.84;64.96
49949;BME280;35840;45.982;8.890;2023-02-20T14:08:36;99144.19;;;11.76;64.59
49949;BME280;35840;45.982;8.890;2023-02-20T14:11:06;99143.03;;;11.81;64.75
49949;BME280;35840;45.982;8.890;2023-02-20T14:13:33;99134.97;;;11.87;65.89
49949;BME280;35840;45.982;8.890;2023-02-20T14:19:00;99136.28;;;11.79;65.49
49949;BME280;35840;45.982;8.890;2023-02-20T14:21:28;99132.28;;;11.73;64.86
49949;BME280;35840;45.982;8.890;2023-02-20T14:23:56;99131.63;;;11.69;66.01
49949;BME280;35840;45.982;8.890;2023-02-20T14:26:30;99134.69;;;11.60;65.56
49949;BME280;35840;45.982;8.890;2023-02-20T14:28:58;99124.13;;;11.65;65.76
49949;BME280;35840;45.982;8.890;2023-02-20T14:31:32;99122.59;;;11.78;65.20
49949;BME280;35840;45.982;8.890;2023-02-20T14:34:23;99127.66;;;11.80;65.85
49949;BME280;35840;45.982;8.890;2023-02-20T14:37:13;99134.06;;;11.88;64.72
49949;BME280;35840;45.982;8.890;2023-02-20T14:42:24;99122.41;;;11.81;64.28
49949;BME280;35840;45.982;8.890;2023-02-20T14:44:58;99120.41;;;11.70;64.88
49949;BME280;35840;45.982;8.890;2023-02-20T14:47:26;99109.53;;;11.65;64.87
49949;BME280;35840;45.982;8.890;2023-02-20T14:49:52;99113.59;;;11.69;65.55
49949;BME280;35840;45.982;8.890;2023-02-20T14:52:22;99113.66;;;11.68;65.62
49949;BME280;35840;45.982;8.890;2023-02-20T14:55:04;99106.78;;;11.68;65.46
49949;BME280;35840;45.982;8.890;2023-02-20T14:57:32;99105.78;;;11.71;65.68
49949;BME280;35840;45.982;8.890;2023-02-20T15:02:45;99102.88;;;11.93;65.60
49949;BME280;35840;45.982;8.890;2023-02-20T15:05:19;99110.06;;;12.04;65.43
49949;BME280;35840;45.982;8.890;2023-02-20T15:07:46;99113.22;;;12.09;64.22
49949;BME280;35840;45.982;8.890;2023-02-20T15:13:04;99107.47;;;12.20;64.73
49949;BME280;35840;45.982;8.890;2023-02-20T15:15:42;99109.72;;;12.26;64.20
49949;BME280;35840;45.982;8.890;2023-02-20T15:18:15;99105.13;;;12.31;63.30
49949;BME280;35840;45.982;8.890;2023-02-20T15:20:45;99101.91;;;12.28;64.22
49949;BME280;35840;45.982;8.890;2023-02-20T15:25:42;99103.00;;;12.23;62.98
49949;BME280;35840;45.982;8.890;2023-02-20T15:31:30;99113.63;;;12.17;63.05
49949;BME280;35840;45.982;8.890;2023-02-20T15:33:37;99112.72;;;12.18;63.00
49949;BME280;35840;45.982;8.890;2023-02-20T15:36:05;99110.22;;;12.17;63.51